Time;durP1;ratioP1;P1;durP2;ratioP2;P2;SDS_P1;SDS_P2;PMS_P1;PMS_P2;Temp;Humidity;BMP_temperature;BMP_pressure;BME280_temperature;BME280_humidity;BME280_pressure;Samples;Min_cycle;Max_cycle;Signal;HPM_P1;HPM_P2
2021/09/12 00:01:02;;;;;;;17.05;12.57;;;461.30;2380.80;;;;;;6313247;22;20000;-71
2021/09/12 00:03:29;;;;;;;19.15;12.93;;;461.30;2380.80;;;;;;6306997;22;19996;-64
2021/09/12 00:05:55;;;;;;;15.07;12.98;;;461.30;2380.80;;;;;;6307949;22;20333;-65
2021/09/12 00:08:20;;;;;;;16.67;12.80;;;461.30;2380.80;;;;;;6307027;22;19995;-64
2021/09/12 00:10:46;;;;;;;15.98;13.52;;;461.30;2380.80;;;;;;6307258;22;20374;-61
2021/09/12 00:13:12;;;;;;;15.98;13.25;;;461.20;2380.80;;;;;;6307259;22;20007;-62
2021/09/12 00:15:37;;;;;;;19.80;13.82;;;461.20;2380.80;;;;;;6311102;22;20010;-62
2021/09/12 00:18:03;;;;;;;14.80;13.05;;;461.10;2380.80;;;;;;6280765;22;20003;-60
2021/09/12 00:20:29;;;;;;;15.02;13.43;;;461.10;2380.80;;;;;;6306698;22;19995;-62
2021/09/12 00:22:55;;;;;;;20.23;13.93;;;461.10;2380.80;;;;;;6307166;22;20007;-61
2021/09/12 00:25:20;;;;;;;16.80;13.07;;;461.10;2380.80;;;;;;6305453;22;20429;-63
2021/09/12 00:27:46;;;;;;;15.65;13.55;;;461.00;2380.80;;;;;;6307013;22;20036;-61
2021/09/12 00:30:12;;;;;;;16.23;13.32;;;461.00;2380.80;;;;;;6306999;22;20007;-62
2021/09/12 00:32:38;;;;;;;16.27;13.48;;;460.90;2380.80;;;;;;6305507;22;20004;-63
2021/09/12 00:35:05;;;;;;;15.48;13.85;;;460.90;2380.80;;;;;;6306599;22;20299;-64
2021/09/12 00:37:31;;;;;;;17.48;13.32;;;461.30;2380.80;;;;;;6305400;22;19999;-66
2021/09/12 00:39:56;;;;;;;17.55;14.43;;;460.80;2380.80;;;;;;6306110;22;20038;-61
2021/09/12 00:42:22;;;;;;;15.52;13.70;;;460.80;2380.80;;;;;;6305528;22;19999;-62
2021/09/12 00:44:48;;;;;;;18.70;13.63;;;460.80;2380.80;;;;;;6307393;22;19999;-64
2021/09/12 00:47:14;;;;;;;15.98;13.55;;;436.10;2355.20;;;;;;6308872;22;20003;-71
2021/09/12 00:49:41;;;;;;;16.13;13.30;;;436.10;2355.20;;;;;;6308992;22;20015;-68
2021/09/12 00:52:09;;;;;;;15.73;13.60;;;436.10;2355.20;;;;;;6283430;22;20003;-74
2021/09/12 00:54:36;;;;;;;17.52;13.90;;;436.00;2355.20;;;;;;6308802;22;20010;-67
2021/09/12 00:57:05;;;;;;;15.23;13.68;;;435.90;2355.20;;;;;;6307427;22;20003;-75
2021/09/12 00:59:32;;;;;;;19.98;14.07;;;435.90;2355.20;;;;;;6307007;22;19999;-67
2021/09/12 01:01:58;;;;;;;16.80;13.48;;;435.80;2355.20;;;;;;6307614;22;20003;-70
2021/09/12 01:04:55;;;;;;;16.63;13.82;;;435.80;2355.20;;;;;;6307117;22;20018;-73
2021/09/12 01:07:20;;;;;;;18.67;13.88;;;435.80;2355.20;;;;;;6308421;22;20050;-71
2021/09/12 01:09:46;;;;;;;16.58;13.35;;;435.80;2355.20;;;;;;6307453;22;20019;-73
2021/09/12 01:12:13;;;;;;;17.67;13.27;;;435.70;2355.20;;;;;;6312798;22;20006;-73
2021/09/12 01:14:39;;;;;;;16.10;13.25;;;435.70;2355.20;;;;;;6314499;22;20007;-77
2021/09/12 01:17:06;;;;;;;14.65;13.10;;;435.70;2355.20;;;;;;6284397;22;20059;-73
2021/09/12 01:19:34;;;;;;;18.92;13.80;;;435.70;2355.20;;;;;;6306023;22;20023;-66
2021/09/12 01:22:03;;;;;;;14.80;13.23;;;435.70;2355.20;;;;;;6308187;22;20298;-76
2021/09/12 01:24:30;;;;;;;17.17;13.88;;;435.60;2355.20;;;;;;6307983;22;20070;-73
2021/09/12 01:26:56;;;;;;;16.90;13.23;;;435.60;2355.20;;;;;;6310207;22;20022;-67
2021/09/12 01:29:22;;;;;;;14.70;13.10;;;435.60;2355.20;;;;;;6280437;22;20011;-76
2021/09/12 01:31:48;;;;;;;15.68;14.00;;;435.60;2355.20;;;;;;6308042;22;20025;-70
2021/09/12 01:34:14;;;;;;;18.27;13.93;;;435.60;2355.20;;;;;;6308589;22;20010;-66
2021/09/12 01:36:40;;;;;;;19.63;14.38;;;435.60;2355.20;;;;;;6306987;22;20003;-76
2021/09/12 01:39:06;;;;;;;16.85;14.50;;;435.60;2355.20;;;;;;6280254;22;20026;-72
2021/09/12 01:41:32;;;;;;;18.58;14.43;;;435.50;2355.20;;;;;;6306771;22;20025;-63
2021/09/12 01:43:59;;;;;;;17.17;13.80;;;435.40;2355.20;;;;;;6307915;22;20118;-75
2021/09/12 01:46:26;;;;;;;15.82;13.60;;;435.40;2355.20;;;;;;6306273;22;20074;-70
2021/09/12 01:48:54;;;;;;;16.98;14.10;;;435.40;2355.20;;;;;;6308449;22;20082;-71
2021/09/12 01:51:20;;;;;;;18.15;14.43;;;435.40;2355.20;;;;;;6307306;22;19995;-74
2021/09/12 01:53:47;;;;;;;17.25;14.35;;;435.40;2355.20;;;;;;6307865;22;20430;-75
2021/09/12 01:56:14;;;;;;;20.00;14.00;;;435.40;2355.20;;;;;;6307466;22;20013;-70
2021/09/12 01:58:40;;;;;;;14.75;13.25;;;435.40;2355.20;;;;;;6308901;22;20059;-71
2021/09/12 02:01:06;;;;;;;15.73;13.75;;;435.40;2355.20;;;;;;6308375;22;20051;-76
2021/09/12 02:03:33;;;;;;;18.55;14.30;;;435.40;2355.20;;;;;;6307863;22;20014;-77
2021/09/12 02:06:17;;;;;;;15.82;13.80;;;435.40;2355.20;;;;;;6308833;22;20000;-68
2021/09/12 02:08:43;;;;;;;16.40;14.27;;;435.40;2355.20;;;;;;6280693;22;20003;-63
2021/09/12 02:11:10;;;;;;;16.55;13.95;;;435.40;2355.20;;;;;;6280310;22;20003;-74
2021/09/12 02:13:36;;;;;;;15.05;13.32;;;435.30;2355.20;;;;;;6308178;22;20259;-75
2021/09/12 02:16:01;;;;;;;15.10;13.50;;;435.30;2355.20;;;;;;6307932;22;20389;-69
2021/09/12 02:18:27;;;;;;;16.67;13.35;;;435.20;2355.20;;;;;;6322392;22;19999;-73
2021/09/12 02:20:53;;;;;;;15.82;13.75;;;435.20;2355.20;;;;;;6335929;22;19991;-76
2021/09/12 02:23:18;;;;;;;15.23;13.35;;;435.20;2355.20;;;;;;6335384;22;20002;-69
2021/09/12 02:25:44;;;;;;;19.00;13.32;;;410.50;2355.20;;;;;;6335368;22;20003;-74
2021/09/12 02:28:10;;;;;;;15.00;12.82;;;435.20;2355.20;;;;;;6334405;22;19999;-73
2021/09/12 02:30:36;;;;;;;14.68;12.75;;;410.50;2355.20;;;;;;6334397;22;20035;-76
2021/09/12 02:33:02;;;;;;;14.48;12.90;;;410.50;2355.20;;;;;;6334768;22;20039;-75
2021/09/12 02:35:28;;;;;;;18.10;13.15;;;410.50;2355.20;;;;;;6335453;22;20043;-63
2021/09/12 02:37:53;;;;;;;17.92;13.15;;;410.50;2355.20;;;;;;6336097;22;20006;-74
2021/09/12 02:40:20;;;;;;;15.07;12.98;;;410.40;2355.20;;;;;;6335313;22;19987;-77
2021/09/12 02:42:46;;;;;;;17.95;13.48;;;410.40;2355.20;;;;;;6334418;22;19980;-78
2021/09/12 02:45:12;;;;;;;19.10;13.05;;;410.40;2355.20;;;;;;6333292;22;20053;-75
2021/09/12 02:47:37;;;;;;;14.98;12.30;;;410.30;2355.20;;;;;;6332029;22;19995;-73
2021/09/12 02:50:04;;;;;;;16.30;13.00;;;410.30;2355.20;;;;;;6330255;22;20011;-71
2021/09/12 02:52:30;;;;;;;15.75;12.57;;;410.30;2355.20;;;;;;6333092;22;20014;-73
2021/09/12 02:54:56;;;;;;;15.43;13.80;;;410.20;2355.20;;;;;;6331776;22;19999;-71
2021/09/12 02:57:22;;;;;;;15.77;12.93;;;410.20;2355.20;;;;;;6331767;22;19995;-72
2021/09/12 02:59:48;;;;;;;17.40;13.25;;;410.20;2355.20;;;;;;6330827;22;19999;-72
2021/09/12 03:02:13;;;;;;;19.17;13.43;;;410.20;2355.20;;;;;;6329519;22;19996;-75
2021/09/12 03:04:39;;;;;;;18.77;12.98;;;410.20;2355.20;;;;;;6301759;22;19999;-79
2021/09/12 03:07:05;;;;;;;14.70;12.50;;;410.20;2355.20;;;;;;6327715;22;19999;-79
2021/09/12 03:09:30;;;;;;;16.50;12.88;;;410.20;2355.20;;;;;;6327555;22;20014;-79
2021/09/12 03:11:56;;;;;;;15.18;12.25;;;410.20;2355.20;;;;;;6327323;22;20022;-79
2021/09/12 03:14:22;;;;;;;15.50;12.27;;;410.20;2355.20;;;;;;6300093;22;20037;-77
2021/09/12 03:16:48;;;;;;;15.38;12.18;;;410.20;2355.20;;;;;;6326597;22;20071;-75
2021/09/12 03:19:15;;;;;;;15.82;12.55;;;410.20;2355.20;;;;;;6328946;22;20051;-79
2021/09/12 03:21:42;;;;;;;15.77;12.45;;;410.10;2355.20;;;;;;6329521;22;19995;-78
2021/09/12 03:24:08;;;;;;;15.75;12.25;;;410.10;2355.20;;;;;;6331442;22;19987;-71
2021/09/12 03:26:34;;;;;;;14.38;12.38;;;410.00;2355.20;;;;;;6332765;22;20066;-79
2021/09/12 03:28:59;;;;;;;13.38;11.98;;;410.00;2355.20;;;;;;6306000;22;20069;-79
2021/09/12 03:31:25;;;;;;;14.32;11.35;;;410.00;2355.20;;;;;;6332386;22;19996;-77
2021/09/12 03:33:51;;;;;;;12.95;11.38;;;410.00;2355.20;;;;;;6335051;22;19987;-78
2021/09/12 03:36:54;;;;;;;16.17;11.80;;;409.90;2355.20;;;;;;6334517;22;20337;-76
2021/09/12 03:39:20;;;;;;;12.23;10.60;;;409.90;2355.20;;;;;;6334196;22;19995;-72
2021/09/12 03:41:45;;;;;;;14.57;10.85;;;409.80;2355.20;;;;;;6333946;22;20030;-70
2021/09/12 03:44:11;;;;;;;12.43;10.50;;;409.80;2355.20;;;;;;6331056;22;19996;-70
2021/09/12 03:46:37;;;;;;;12.50;10.50;;;409.80;2355.20;;;;;;6328998;22;20003;-70
2021/09/12 03:49:03;;;;;;;13.07;9.88;;;409.80;2355.20;;;;;;6325434;22;20077;-79
2021/09/12 03:51:29;;;;;;;11.25;9.68;;;409.80;2355.20;;;;;;6326643;22;20006;-67
2021/09/12 03:53:55;;;;;;;11.43;9.90;;;409.80;2355.20;;;;;;6325709;22;20054;-79
2021/09/12 03:56:20;;;;;;;11.82;9.70;;;409.80;2355.20;;;;;;6322577;22;20078;-79
2021/09/12 03:58:46;;;;;;;11.98;9.88;;;409.80;2355.20;;;;;;6321840;22;20029;-78
2021/09/12 04:01:12;;;;;;;12.93;9.90;;;409.80;2355.20;;;;;;6320856;22;19999;-79
2021/09/12 04:03:37;;;;;;;16.50;10.48;;;409.80;2355.20;;;;;;6320216;22;20002;-78
2021/09/12 04:06:03;;;;;;;16.45;10.13;;;409.80;2355.20;;;;;;6318787;22;20007;-74
2021/09/12 04:08:29;;;;;;;13.18;10.27;;;409.80;2355.20;;;;;;6317574;22;20053;-71
2021/09/12 04:10:55;;;;;;;13.68;10.10;;;409.80;2355.20;;;;;;6318855;22;20007;-78
2021/09/12 04:13:20;;;;;;;13.98;10.75;;;409.80;2355.20;;;;;;6318199;22;20050;-78
2021/09/12 04:15:46;;;;;;;16.65;11.35;;;409.80;2355.20;;;;;;6321284;22;20007;-78
2021/09/12 04:18:12;;;;;;;18.10;12.40;;;409.70;2355.20;;;;;;6323143;22;20410;-79
2021/09/12 04:24:00;;;;;;;18.35;12.40;;;409.70;2355.20;;;;;;6321214;22;20011;-78
2021/09/12 04:26:25;;;;;;;12.98;11.48;;;409.70;2355.20;;;;;;6294763;22;20011;-79
2021/09/12 04:28:51;;;;;;;17.92;11.10;;;409.60;2355.20;;;;;;6321182;22;20013;-78
2021/09/12 04:31:17;;;;;;;15.45;11.48;;;409.60;2355.20;;;;;;6318606;22;20414;-70
2021/09/12 04:33:42;;;;;;;16.33;11.50;;;409.60;2355.20;;;;;;6318669;22;20003;-78
2021/09/12 04:36:08;;;;;;;16.30;11.55;;;409.60;2355.20;;;;;;6317618;22;20090;-78
2021/09/12 04:38:34;;;;;;;15.07;11.52;;;384.90;2329.60;;;;;;6317021;22;20002;-76
2021/09/12 04:41:00;;;;;;;15.55;11.48;;;384.90;2329.60;;;;;;6317307;22;20025;-78
2021/09/12 04:43:26;;;;;;;15.02;11.10;;;384.90;2329.60;;;;;;6315904;22;20011;-77
2021/09/12 04:45:54;;;;;;;16.55;12.25;;;384.80;2329.60;;;;;;6314519;22;20034;-77
2021/09/12 04:48:19;;;;;;;16.13;11.82;;;384.80;2329.60;;;;;;6313275;22;20078;-76
2021/09/12 04:51:05;;;;;;;15.10;11.95;;;384.80;2329.60;;;;;;6316273;22;20003;-77
2021/09/12 04:53:32;;;;;;;13.50;11.85;;;384.80;2329.60;;;;;;6314827;22;19999;-78
2021/09/12 04:55:57;;;;;;;16.00;11.50;;;384.80;2329.60;;;;;;6313758;22;19991;-77
2021/09/12 04:58:23;;;;;;;18.05;10.77;;;384.90;2329.60;;;;;;6315412;22;20049;-77
2021/09/12 05:00:49;;;;;;;13.38;10.65;;;384.90;2329.60;;;;;;6314024;22;20321;-78
2021/09/12 05:03:15;;;;;;;11.93;10.27;;;384.90;2329.60;;;;;;6315031;22;20003;-77
2021/09/12 05:05:40;;;;;;;12.73;10.25;;;409.60;2355.20;;;;;;6286287;22;20101;-78
2021/09/12 05:08:06;;;;;;;14.02;9.75;;;409.60;2355.20;;;;;;6313709;22;20018;-78
2021/09/12 05:10:32;;;;;;;12.80;9.73;;;409.70;2355.20;;;;;;6313890;22;20013;-77
2021/09/12 05:12:57;;;;;;;10.55;9.45;;;409.70;2355.20;;;;;;6314140;22;20333;-77
2021/09/12 05:15:23;;;;;;;12.02;9.18;;;409.80;2355.20;;;;;;6313972;22;20000;-77
2021/09/12 05:17:49;;;;;;;12.55;9.40;;;409.90;2355.20;;;;;;6314290;22;20002;-77
2021/09/12 05:20:15;;;;;;;13.52;9.02;;;409.90;2355.20;;;;;;6314072;22;20364;-78
2021/09/12 05:22:59;;;;;;;10.88;8.98;;;410.00;2355.20;;;;;;6313661;22;20082;-78
2021/09/12 05:25:25;;;;;;;11.68;8.70;;;410.10;2355.20;;;;;;6313211;22;20003;-74
2021/09/12 05:27:51;;;;;;;11.48;9.20;;;410.10;2355.20;;;;;;6282480;22;20007;-61
2021/09/12 05:30:16;;;;;;;12.05;8.65;;;410.10;2355.20;;;;;;6309964;22;20022;-61
2021/09/12 05:32:45;;;;;;;11.57;8.55;;;410.20;2355.20;;;;;;6309931;22;19999;-67
2021/09/12 05:35:12;;;;;;;10.80;8.23;;;410.30;2355.20;;;;;;6310485;22;20010;-66
2021/09/12 05:37:38;;;;;;;13.38;8.40;;;410.30;2355.20;;;;;;6310172;22;20057;-70
2021/09/12 05:40:05;;;;;;;11.43;8.68;;;410.40;2355.20;;;;;;6310441;22;20003;-63
2021/09/12 05:42:30;;;;;;;9.90;8.40;;;410.40;2355.20;;;;;;6309651;22;19996;-64
2021/09/12 05:44:56;;;;;;;10.50;8.73;;;410.50;2355.20;;;;;;6309201;22;20018;-66
2021/09/12 05:47:22;;;;;;;12.77;8.70;;;435.20;2355.20;;;;;;6309989;22;19996;-68
2021/09/12 05:49:47;;;;;;;13.55;8.40;;;435.20;2355.20;;;;;;6310362;22;20011;-68
2021/09/12 05:52:13;;;;;;;12.15;8.20;;;435.40;2355.20;;;;;;6309646;22;20023;-78
2021/09/12 05:54:39;;;;;;;9.93;8.63;;;435.50;2355.20;;;;;;6309424;22;20000;-77
2021/09/12 05:57:04;;;;;;;12.40;8.55;;;435.60;2355.20;;;;;;6312107;22;20008;-77
2021/09/12 05:59:30;;;;;;;10.40;8.38;;;435.70;2355.20;;;;;;6311863;22;20000;-78
2021/09/12 06:01:56;;;;;;;12.48;7.65;;;435.80;2355.20;;;;;;6311542;22;19996;-67
2021/09/12 06:04:22;;;;;;;11.57;8.18;;;435.90;2355.20;;;;;;6310962;22;20054;-61
2021/09/12 06:06:47;;;;;;;13.48;7.85;;;436.10;2355.20;;;;;;6310366;22;20026;-61
2021/09/12 06:09:13;;;;;;;9.95;7.57;;;460.80;2380.80;;;;;;6308440;22;20011;-61
2021/09/12 06:11:39;;;;;;;13.00;7.78;;;460.90;2380.80;;;;;;6308952;22;20003;-61
2021/09/12 06:14:05;;;;;;;11.38;7.32;;;461.10;2380.80;;;;;;6308274;22;20007;-61
2021/09/12 06:16:30;;;;;;;10.90;7.50;;;461.10;2380.80;;;;;;6280912;22;20000;-61
2021/09/12 06:18:56;;;;;;;16.85;7.45;;;461.30;2380.80;;;;;;6309033;22;20003;-61
2021/09/12 06:21:22;;;;;;;9.85;7.00;;;461.40;2380.80;;;;;;6280743;22;20014;-62
2021/09/12 06:23:47;;;;;;;11.35;7.25;;;461.60;2380.80;;;;;;6307938;22;20417;-61
2021/09/12 06:26:13;;;;;;;8.98;7.28;;;461.70;2380.80;;;;;;6308638;22;20003;-61
2021/09/12 06:28:39;;;;;;;10.75;7.78;;;486.40;2380.80;;;;;;6308816;22;20409;-61
2021/09/12 06:31:05;;;;;;;9.48;7.07;;;486.60;2355.20;;;;;;6308511;22;20029;-61
2021/09/12 06:33:30;;;;;;;12.60;6.60;;;486.70;2380.80;;;;;;6308174;22;19999;-61
2021/09/12 06:35:57;;;;;;;10.38;7.03;;;486.90;2329.60;;;;;;6308922;22;20004;-61
2021/09/12 06:38:22;;;;;;;8.85;7.07;;;487.00;2304.00;;;;;;6309234;22;20003;-62
2021/09/12 06:40:48;;;;;;;9.07;6.55;;;487.20;2278.40;;;;;;6309408;22;20451;-62
2021/09/12 06:43:14;;;;;;;12.55;6.90;;;512.00;2278.40;;;;;;6309959;22;20027;-62
2021/09/12 06:45:40;;;;;;;11.68;6.55;;;512.20;2252.80;;;;;;6309960;22;19999;-61
2021/09/12 06:48:05;;;;;;;8.70;6.13;;;512.40;2201.60;;;;;;6308423;22;20071;-62
2021/09/12 06:50:31;;;;;;;8.77;6.28;;;512.70;2176.00;;;;;;6281308;22;20018;-61
2021/09/12 06:52:57;;;;;;;9.93;6.28;;;512.80;2099.20;;;;;;6308067;22;19999;-62
2021/09/12 06:55:23;;;;;;;7.60;5.70;;;537.80;2073.60;;;;;;6307814;22;20008;-62
2021/09/12 06:57:48;;;;;;;9.02;6.28;;;563.20;2022.40;;;;;;6308968;22;19999;-67
2021/09/12 07:00:14;;;;;;;7.78;6.15;;;564.10;1920.00;;;;;;6310520;22;20011;-62
2021/09/12 07:02:40;;;;;;;12.65;6.18;;;589.60;1843.20;;;;;;6283185;22;20429;-64
2021/09/12 07:05:07;;;;;;;8.60;5.55;;;614.70;1792.00;;;;;;6310642;22;20022;-63
2021/09/12 07:07:34;;;;;;;9.20;5.10;;;640.00;1689.60;;;;;;6310178;22;20056;-62
2021/09/12 07:09:59;;;;;;;8.82;5.45;;;640.80;1561.60;;;;;;6309322;22;20007;-64
2021/09/12 07:12:25;;;;;;;8.70;5.25;;;640.90;1484.80;;;;;;6281451;22;20002;-63
2021/09/12 07:14:51;;;;;;;8.15;5.32;;;640.80;1484.80;;;;;;6309620;22;20007;-68
2021/09/12 07:17:16;;;;;;;10.50;5.32;;;640.80;1484.80;;;;;;6310006;22;20053;-77
2021/09/12 07:19:42;;;;;;;7.82;5.13;;;640.60;1459.20;;;;;;6282237;22;20010;-66
2021/09/12 07:22:08;;;;;;;8.88;5.05;;;640.60;1459.20;;;;;;6309964;22;19999;-62
2021/09/12 07:24:34;;;;;;;6.32;5.18;;;640.50;1408.00;;;;;;6310934;22;20003;-62
2021/09/12 07:26:59;;;;;;;9.63;5.32;;;640.40;1408.00;;;;;;6310722;22;20523;-62
2021/09/12 07:29:25;;;;;;;11.90;5.63;;;640.40;1433.60;;;;;;6310143;22;20426;-62
2021/09/12 07:31:52;;;;;;;8.38;5.53;;;640.60;1484.80;;;;;;6310843;22;20066;-61
2021/09/12 07:34:18;;;;;;;10.30;5.45;;;640.60;1536.00;;;;;;6312221;22;20319;-62
2021/09/12 07:36:44;;;;;;;8.88;5.55;;;640.60;1484.80;;;;;;6311848;22;20007;-65
2021/09/12 07:39:10;;;;;;;12.45;5.57;;;640.70;1510.40;;;;;;6310559;22;19999;-62
2021/09/12 07:41:36;;;;;;;11.45;5.78;;;640.80;1510.40;;;;;;6282794;22;20011;-63
2021/09/12 07:44:01;;;;;;;10.23;5.53;;;640.90;1459.20;;;;;;6310584;22;20003;-64
2021/09/12 07:46:27;;;;;;;8.45;5.43;;;640.90;1433.60;;;;;;6310420;22;20056;-65
2021/09/12 07:48:53;;;;;;;8.02;5.20;;;665.60;1484.80;;;;;;6312059;22;20053;-62
2021/09/12 07:51:18;;;;;;;8.85;5.15;;;665.80;1459.20;;;;;;6310410;22;20356;-68
2021/09/12 07:53:44;;;;;;;11.30;5.07;;;665.90;1408.00;;;;;;6313116;22;20007;-67
2021/09/12 07:56:10;;;;;;;9.00;5.18;;;666.10;1408.00;;;;;;6312205;22;20425;-65
2021/09/12 07:58:36;;;;;;;9.50;5.15;;;666.20;1382.40;;;;;;6311514;22;20003;-69
2021/09/12 08:01:02;;;;;;;8.02;5.13;;;666.40;1382.40;;;;;;6283141;22;20007;-66
2021/09/12 08:03:27;;;;;;;9.88;5.20;;;666.40;1356.80;;;;;;6310635;22;20084;-62
2021/09/12 08:05:53;;;;;;;8.88;5.28;;;666.50;1382.40;;;;;;6309319;22;20018;-77
2021/09/12 08:08:19;;;;;;;12.93;4.88;;;691.30;1356.80;;;;;;6309502;22;20003;-71
2021/09/12 08:10:46;;;;;;;10.85;5.50;;;691.50;1331.20;;;;;;6309637;22;20041;-75
2021/09/12 08:13:11;;;;;;;6.80;4.68;;;691.60;1254.40;;;;;;6282223;22;20003;-66
2021/09/12 08:15:38;;;;;;;8.95;4.85;;;691.70;1254.40;;;;;;6309803;22;20376;-69
2021/09/12 08:18:05;;;;;;;10.10;5.13;;;691.70;1228.80;;;;;;6309812;22;20006;-70
2021/09/12 08:20:31;;;;;;;5.55;4.85;;;691.80;1228.80;;;;;;6281112;22;20038;-71
2021/09/12 08:22:57;;;;;;;7.88;5.32;;;692.00;1254.40;;;;;;6309746;22;20003;-71
2021/09/12 08:25:23;;;;;;;17.63;5.55;;;717.00;1280.00;;;;;;6309835;22;20003;-72
2021/09/12 08:27:49;;;;;;;11.25;4.90;;;717.50;1228.80;;;;;;6282141;22;20413;-81
2021/09/12 08:30:15;;;;;;;11.13;5.03;;;742.70;1203.20;;;;;;6309246;22;20437;-70
2021/09/12 08:32:41;;;;;;;7.32;4.85;;;768.00;1152.00;;;;;;6309165;22;20027;-74
2021/09/12 08:35:08;;;;;;;11.65;5.35;;;768.90;1126.40;;;;;;6309345;22;20429;-64
2021/09/12 08:37:34;;;;;;;9.85;5.53;;;794.50;1100.80;;;;;;6309012;22;20000;-67
2021/09/12 08:40:04;;;;;;;6.43;5.30;;;819.90;998.40;;;;;;6281480;22;20003;-66
2021/09/12 08:42:30;;;;;;;9.10;5.57;;;845.60;972.80;;;;;;6308918;22;19999;-67
2021/09/12 08:44:57;;;;;;;8.82;5.70;;;870.60;896.00;;;;;;6309462;22;20348;-62
2021/09/12 08:47:23;;;;;;;9.13;5.53;;;896.20;870.40;;;;;;6309037;22;20314;-63
2021/09/12 08:49:49;;;;;;;9.65;5.40;;;921.90;844.80;;;;;;6308832;22;20014;-63
2021/09/12 08:52:14;;;;;;;6.88;5.20;;;947.80;793.60;;;;;;6308406;22;19999;-65
2021/09/12 08:54:41;;;;;;;9.60;5.15;;;998.40;768.00;;;;;;6308739;22;20433;-66
2021/09/12 08:57:07;;;;;;;6.88;5.10;;;1024.40;716.80;;;;;;6308241;22;20337;-64
2021/09/12 08:59:34;;;;;;;9.65;5.38;;;1050.30;691.20;;;;;;6306655;22;20009;-62
2021/09/12 09:02:02;;;;;;;9.07;5.03;;;1076.10;614.40;;;;;;6306703;22;20081;-65
2021/09/12 09:04:33;;;;;;;7.28;5.03;;;1101.10;614.40;;;;;;6277571;22;20015;-61
2021/09/12 09:07:04;;;;;;;7.85;4.75;;;1126.70;563.20;;;;;;6306474;22;20004;-65
2021/09/12 09:09:50;;;;;;;9.23;4.50;;;1152.90;512.00;;;;;;6304978;22;20380;-65
2021/09/12 09:12:36;;;;;;;9.20;5.00;;;1178.40;486.40;;;;;;6305795;22;20026;-64
2021/09/12 09:15:07;;;;;;;11.32;6.72;;;1204.10;435.20;;;;;;6305551;22;20003;-62
2021/09/12 09:17:42;;;;;;;6.97;4.20;;;1203.60;435.20;;;;;;6305515;22;20004;-64
2021/09/12 09:20:11;;;;;;;7.55;4.50;;;1204.00;435.20;;;;;;6278172;22;20329;-65
2021/09/12 09:22:40;;;;;;;5.03;4.13;;;1204.00;435.20;;;;;;6305423;22;20056;-68
2021/09/12 09:25:20;;;;;;;7.13;4.80;;;1229.30;460.80;;;;;;6306129;22;20056;-65
2021/09/12 09:28:08;;;;;;;8.90;4.70;;;1229.60;460.80;;;;;;6305860;22;20003;-64
2021/09/12 09:30:49;;;;;;;6.68;4.40;;;1229.40;460.80;;;;;;6277970;22;20017;-65
2021/09/12 09:33:15;;;;;;;7.35;4.70;;;1254.80;486.40;;;;;;6305648;22;20433;-65
2021/09/12 09:35:51;;;;;;;5.22;3.70;;;1254.70;486.40;;;;;;6306122;22;20134;-69
2021/09/12 09:38:17;;;;;;;4.60;4.15;;;1254.90;486.40;;;;;;6305352;22;20402;-69
2021/09/12 09:41:02;;;;;;;5.57;4.20;;;1229.70;460.80;;;;;;6278489;22;20703;-69
2021/09/12 09:43:40;;;;;;;6.95;4.40;;;1280.30;486.40;;;;;;6304094;22;20000;-63
2021/09/12 09:46:05;;;;;;;7.30;3.80;;;1280.90;486.40;;;;;;6304012;22;20018;-66
2021/09/12 09:48:35;;;;;;;5.32;3.72;;;1280.30;486.40;;;;;;6304419;22;20007;-64
2021/09/12 09:51:03;;;;;;;4.00;3.60;;;1305.80;486.40;;;;;;6278290;22;20030;-68
2021/09/12 09:53:35;;;;;;;5.93;3.80;;;1305.60;486.40;;;;;;6304093;22;20437;-65
2021/09/12 09:56:03;;;;;;;5.50;3.60;;;1306.50;486.40;;;;;;6305470;22;20006;-65
2021/09/12 09:58:32;;;;;;;6.72;4.00;;;1306.40;486.40;;;;;;6303839;22;19999;-64
2021/09/12 10:01:00;;;;;;;6.72;3.70;;;1332.00;512.00;;;;;;6305381;22;20018;-64
2021/09/12 10:03:27;;;;;;;5.57;3.50;;;1357.00;537.60;;;;;;6305049;22;20003;-65
2021/09/12 10:05:53;;;;;;;6.50;3.60;;;1356.80;537.60;;;;;;6305231;22;20023;-67
2021/09/12 10:08:19;;;;;;;9.98;3.60;;;1331.30;512.00;;;;;;6304917;22;20364;-66
2021/09/12 10:10:45;;;;;;;3.88;3.20;;;1357.00;537.60;;;;;;6305264;22;20691;-67
2021/09/12 10:13:13;;;;;;;5.20;3.50;;;1357.70;537.60;;;;;;6276824;22;20060;-66
2021/09/12 10:15:40;;;;;;;4.32;3.55;;;1331.50;512.00;;;;;;6305248;22;20460;-68
2021/09/12 10:18:08;;;;;;;6.82;3.67;;;1332.10;512.00;;;;;;6306095;22;19995;-65
2021/09/12 10:20:35;;;;;;;6.60;4.10;;;1357.60;537.60;;;;;;6304446;22;20346;-68
2021/09/12 10:23:02;;;;;;;4.15;3.45;;;1357.00;537.60;;;;;;6278239;22;20082;-66
2021/09/12 10:25:58;;;;;;;11.07;3.88;;;1357.10;537.60;;;;;;6302426;22;20076;-66
2021/09/12 10:28:30;;;;;;;4.03;3.33;;;1357.40;537.60;;;;;;6275152;22;20053;-65
2021/09/12 10:30:56;;;;;;;6.40;3.60;;;1331.30;512.00;;;;;;6304141;22;19999;-66
2021/09/12 10:33:26;;;;;;;40.67;4.80;;;1357.10;537.60;;;;;;6302653;22;20003;-66
2021/09/12 10:35:53;;;;;;;7.00;4.43;;;1357.30;537.60;;;;;;6276962;22;20052;-67
2021/09/12 10:38:29;;;;;;;5.05;3.60;;;1331.30;512.00;;;;;;6303343;22;19999;-67
2021/09/12 10:40:54;;;;;;;5.35;3.80;;;1306.50;486.40;;;;;;6303971;22;20011;-67
2021/09/12 10:43:26;;;;;;;4.47;3.72;;;1280.80;486.40;;;;;;6302776;22;20405;-65
2021/09/12 10:46:03;;;;;;;6.65;3.30;;;1306.20;486.40;;;;;;6305036;22;20011;-66
2021/09/12 10:48:40;;;;;;;5.68;4.10;;;1306.20;486.40;;;;;;6304498;22;19995;-65
2021/09/12 10:51:27;;;;;;;6.78;3.50;;;1331.50;512.00;;;;;;6305382;22;20004;-65
2021/09/12 10:53:55;;;;;;;4.95;3.20;;;1306.10;486.40;;;;;;6305011;22;20074;-65
2021/09/12 10:56:21;;;;;;;5.90;3.33;;;1331.30;512.00;;;;;;6304609;22;20437;-65
2021/09/12 10:58:52;;;;;;;6.28;3.30;;;1331.60;512.00;;;;;;6304195;22;20018;-65
2021/09/12 11:01:29;;;;;;;6.93;4.20;;;1306.50;486.40;;;;;;6277126;22;20053;-68
2021/09/12 11:04:01;;;;;;;9.93;4.00;;;1356.80;537.60;;;;;;6304987;22;20014;-66
2021/09/12 11:06:28;;;;;;;7.07;3.50;;;1356.80;537.60;;;;;;6304132;22;20287;-67
2021/09/12 11:08:55;;;;;;;5.30;3.50;;;1356.80;537.60;;;;;;6304843;22;20086;-66
2021/09/12 11:11:23;;;;;;;4.70;3.10;;;1306.40;486.40;;;;;;6304255;22;20000;-68
2021/09/12 11:13:55;;;;;;;6.00;3.40;;;1331.60;512.00;;;;;;6304641;22;20000;-67
2021/09/12 11:16:22;;;;;;;4.27;3.30;;;1331.60;512.00;;;;;;6304335;22;20078;-68
2021/09/12 11:18:59;;;;;;;6.38;3.78;;;1306.50;486.40;;;;;;6305526;22;20030;-67
2021/09/12 11:21:31;;;;;;;4.97;3.80;;;1332.00;512.00;;;;;;6304411;22;20011;-67
2021/09/12 11:24:05;;;;;;;5.28;3.63;;;1332.00;512.00;;;;;;6305426;22;20031;-66
2021/09/12 11:26:48;;;;;;;5.18;3.60;;;1331.80;512.00;;;;;;6276204;22;20006;-67
2021/09/12 11:29:30;;;;;;;4.13;3.72;;;1331.30;512.00;;;;;;6304612;22;20007;-67
2021/09/12 11:32:10;;;;;;;8.68;3.10;;;1306.50;486.40;;;;;;6305052;22;19999;-66
2021/09/12 11:34:39;;;;;;;5.50;3.80;;;1306.40;486.40;;;;;;6303659;22;20299;-67
2021/09/12 11:37:07;;;;;;;4.30;3.47;;;1306.40;486.40;;;;;;6305753;22;20022;-67
2021/09/12 11:39:38;;;;;;;4.80;3.30;;;1331.80;512.00;;;;;;6303722;22;20678;-66
2021/09/12 11:42:08;;;;;;;5.60;3.78;;;1331.80;512.00;;;;;;6304521;22;20003;-66
2021/09/12 11:44:36;;;;;;;6.05;3.65;;;1331.80;512.00;;;;;;6305799;22;20007;-65
2021/09/12 11:47:06;;;;;;;6.65;5.78;;;1306.50;486.40;;;;;;6307401;22;19999;-65
2021/09/12 11:49:32;;;;;;;5.93;4.43;;;1306.10;486.40;;;;;;6305647;22;20003;-66
2021/09/12 11:51:58;;;;;;;5.53;4.13;;;1331.30;512.00;;;;;;6306978;22;20322;-66
2021/09/12 11:54:31;;;;;;;3.83;3.30;;;1331.80;512.00;;;;;;6305814;22;20076;-67
2021/09/12 11:56:58;;;;;;;5.90;3.40;;;1356.80;537.60;;;;;;6306766;22;20201;-66
2021/09/12 11:59:26;;;;;;;5.85;3.60;;;1331.60;512.00;;;;;;6306377;22;20007;-65
2021/09/12 12:01:54;;;;;;;5.63;4.80;;;1306.50;486.40;;;;;;6278904;22;20027;-67
2021/09/12 12:04:21;;;;;;;13.35;5.85;;;1306.40;486.40;;;;;;6305631;22;20416;-66
2021/09/12 12:06:48;;;;;;;11.80;4.03;;;1332.10;512.00;;;;;;6307434;22;20444;-67
2021/09/12 12:09:18;;;;;;;8.57;4.35;;;1357.00;537.60;;;;;;6306135;22;20030;-65
2021/09/12 12:11:48;;;;;;;3.47;2.97;;;1357.30;537.60;;;;;;6306472;22;20417;-66
2021/09/12 12:14:22;;;;;;;32.45;5.43;;;1280.60;486.40;;;;;;6306205;22;20027;-66